sensor_id;sensor_type;location;lat;lon;timestamp;pressure;altitude;pressure_sealevel;temperature;humidity
19795;BME280;10057;59.402;17.866;2023-04-08T00:00:28;102840.16;;;3.61;66.82
19795;BME280;10057;59.402;17.866;2023-04-08T00:02:55;102838.34;;;3.58;66.64
19795;BME280;10057;59.402;17.866;2023-04-08T00:05:22;102838.41;;;3.60;66.78
19795;BME280;10057;59.402;17.866;2023-04-08T00:07:48;102839.19;;;3.57;66.60
19795;BME280;10057;59.402;17.866;2023-04-08T00:10:15;102838.34;;;3.58;66.72
19795;BME280;10057;59.402;17.866;2023-04-08T00:12:42;102840.94;;;3.56;66.65
19795;BME280;10057;59.402;17.866;2023-04-08T00:15:09;102850.56;;;3.56;66.82
19795;BME280;10057;59.402;17.866;2023-04-08T00:17:36;102846.19;;;3.56;66.77
19795;BME280;10057;59.402;17.866;2023-04-08T00:20:03;102840.97;;;3.58;66.79
19795;BME280;10057;59.402;17.866;2023-04-08T00:22:30;102840.97;;;3.58;66.98
19795;BME280;10057;59.402;17.866;2023-04-08T00:24:57;102834.81;;;3.58;66.60
19795;BME280;10057;59.402;17.866;2023-04-08T00:27:24;102841.81;;;3.57;66.70
19795;BME280;10057;59.402;17.866;2023-04-08T00:29:51;102835.78;;;3.61;66.38
19795;BME280;10057;59.402;17.866;2023-04-08T00:32:17;102834.91;;;3.61;66.76
19795;BME280;10057;59.402;17.866;2023-04-08T00:34:44;102843.72;;;3.63;66.62
19795;BME280;10057;59.402;17.866;2023-04-08T00:37:11;102844.59;;;3.63;66.91
19795;BME280;10057;59.402;17.866;2023-04-08T00:39:38;102839.28;;;3.60;66.81
19795;BME280;10057;59.402;17.866;2023-04-08T00:42:04;102840.16;;;3.61;66.41
19795;BME280;10057;59.402;17.866;2023-04-08T00:44:31;102847.19;;;3.62;66.68
19795;BME280;10057;59.402;17.866;2023-04-08T00:46:58;102848.06;;;3.62;66.90
19795;BME280;10057;59.402;17.866;2023-04-08T00:49:25;102844.56;;;3.62;66.47
19795;BME280;10057;59.402;17.866;2023-04-08T00:51:53;102842.81;;;3.62;66.66
19795;BME280;10057;59.402;17.866;2023-04-08T00:54:20;102834.09;;;3.63;66.79
19795;BME280;10057;59.402;17.866;2023-04-08T00:56:46;102841.97;;;3.63;66.38
19795;BME280;10057;59.402;17.866;2023-04-08T00:59:14;102841.13;;;3.64;66.47
19795;BME280;10057;59.402;17.866;2023-04-08T01:01:50;102841.16;;;3.66;66.65
19795;BME280;10057;59.402;17.866;2023-04-08T01:07:16;102845.50;;;3.65;66.21
19795;BME280;10057;59.402;17.866;2023-04-08T01:09:54;102840.19;;;3.62;66.45
19795;BME280;10057;59.402;17.866;2023-04-08T01:12:28;102844.56;;;3.62;66.30
19795;BME280;10057;59.402;17.866;2023-04-08T01:15:03;102840.25;;;3.64;66.29
19795;BME280;10057;59.402;17.866;2023-04-08T01:17:32;102847.31;;;3.66;66.33
19795;BME280;10057;59.402;17.866;2023-04-08T01:20:01;102852.59;;;3.68;66.46
19795;BME280;10057;59.402;17.866;2023-04-08T01:25:18;102842.19;;;3.72;66.20
19795;BME280;10057;59.402;17.866;2023-04-08T01:27:47;102843.97;;;3.73;66.19
19795;BME280;10057;59.402;17.866;2023-04-08T01:30:17;102843.03;;;3.71;66.23
19795;BME280;10057;59.402;17.866;2023-04-08T01:32:45;102843.91;;;3.70;66.14
19795;BME280;10057;59.402;17.866;2023-04-08T01:35:14;102848.22;;;3.68;66.05
19795;BME280;10057;59.402;17.866;2023-04-08T01:37:42;102846.44;;;3.67;66.29
19795;BME280;10057;59.402;17.866;2023-04-08T01:40:10;102845.56;;;3.67;66.12
19795;BME280;10057;59.402;17.866;2023-04-08T01:42:37;102846.44;;;3.67;66.38
19795;BME280;10057;59.402;17.866;2023-04-08T01:45:05;102850.91;;;3.70;66.27
19795;BME280;10057;59.402;17.866;2023-04-08T01:47:33;102845.59;;;3.68;66.04
19795;BME280;10057;59.402;17.866;2023-04-08T01:50:01;102847.34;;;3.68;65.98
19795;BME280;10057;59.402;17.866;2023-04-08T01:52:29;102855.19;;;3.66;66.48
19795;BME280;10057;59.402;17.866;2023-04-08T01:54:56;102845.50;;;3.64;65.96
19795;BME280;10057;59.402;17.866;2023-04-08T01:57:25;102856.78;;;3.61;66.00
19795;BME280;10057;59.402;17.866;2023-04-08T01:59:55;102851.53;;;3.61;65.95
19795;BME280;10057;59.402;17.866;2023-04-08T02:02:26;102851.53;;;3.61;66.21
19795;BME280;10057;59.402;17.866;2023-04-08T02:04:55;102858.56;;;3.62;66.15
19795;BME280;10057;59.402;17.866;2023-04-08T02:07:22;102860.28;;;3.60;66.18
19795;BME280;10057;59.402;17.866;2023-04-08T02:09:50;102859.41;;;3.60;66.26
19795;BME280;10057;59.402;17.866;2023-04-08T02:12:16;102859.41;;;3.60;66.33
19795;BME280;10057;59.402;17.866;2023-04-08T02:14:44;102853.19;;;3.56;66.14
19795;BME280;10057;59.402;17.866;2023-04-08T02:17:13;102861.06;;;3.56;66.07
19795;BME280;10057;59.402;17.866;2023-04-08T02:22:43;102854.88;;;3.54;65.94
19795;BME280;10057;59.402;17.866;2023-04-08T02:25:14;102856.63;;;3.55;66.26
19795;BME280;10057;59.402;17.866;2023-04-08T02:27:42;102854.88;;;3.54;66.19
19795;BME280;10057;59.402;17.866;2023-04-08T02:30:11;102854.94;;;3.57;66.32
19795;BME280;10057;59.402;17.866;2023-04-08T02:32:38;102856.63;;;3.55;65.84
19795;BME280;10057;59.402;17.866;2023-04-08T02:35:06;102862.75;;;3.55;66.12
19795;BME280;10057;59.402;17.866;2023-04-08T02:37:34;102867.13;;;3.55;65.98
19795;BME280;10057;59.402;17.866;2023-04-08T02:40:02;102859.31;;;3.56;66.30
19795;BME280;10057;59.402;17.866;2023-04-08T02:42:29;102868.06;;;3.57;66.10
19795;BME280;10057;59.402;17.866;2023-04-08T02:44:56;102867.22;;;3.58;66.13
19795;BME280;10057;59.402;17.866;2023-04-08T02:47:31;102857.56;;;3.57;66.08
19795;BME280;10057;59.402;17.866;2023-04-08T02:49:58;102866.38;;;3.59;66.02
19795;BME280;10057;59.402;17.866;2023-04-08T02:52:25;102871.63;;;3.59;65.87
19795;BME280;10057;59.402;17.866;2023-04-08T02:54:52;102870.78;;;3.60;66.09
19795;BME280;10057;59.402;17.866;2023-04-08T02:57:18;102863.78;;;3.61;66.00
19795;BME280;10057;59.402;17.866;2023-04-08T02:59:45;102861.09;;;3.58;65.74
19795;BME280;10057;59.402;17.866;2023-04-08T03:02:12;102867.13;;;3.55;65.81
19795;BME280;10057;59.402;17.866;2023-04-08T03:04:39;102862.81;;;3.57;66.07
19795;BME280;10057;59.402;17.866;2023-04-08T03:07:06;102858.44;;;3.56;66.09
19795;BME280;10057;59.402;17.866;2023-04-08T03:09:34;102873.31;;;3.57;65.70
19795;BME280;10057;59.402;17.866;2023-04-08T03:12:01;102868.00;;;3.55;65.93
19795;BME280;10057;59.402;17.866;2023-04-08T03:14:28;102868.94;;;3.56;65.68
19795;BME280;10057;59.402;17.866;2023-04-08T03:16:54;102873.25;;;3.55;65.98
19795;BME280;10057;59.402;17.866;2023-04-08T03:19:21;102873.25;;;3.54;65.71
19795;BME280;10057;59.402;17.866;2023-04-08T03:21:48;102877.56;;;3.52;65.63
19795;BME280;10057;59.402;17.866;2023-04-08T03:24:15;102879.25;;;3.50;65.73
19795;BME280;10057;59.402;17.866;2023-04-08T03:26:42;102881.81;;;3.47;65.91
19795;BME280;10057;59.402;17.866;2023-04-08T03:29:08;102874.72;;;3.43;65.87
19795;BME280;10057;59.402;17.866;2023-04-08T03:31:36;102870.25;;;3.40;65.60
19795;BME280;10057;59.402;17.866;2023-04-08T03:34:02;102874.72;;;3.43;65.71
19795;BME280;10057;59.402;17.866;2023-04-08T03:36:29;102872.00;;;3.40;65.99
19795;BME280;10057;59.402;17.866;2023-04-08T03:38:56;102879.75;;;3.35;65.89
19795;BME280;10057;59.402;17.866;2023-04-08T03:41:23;102875.25;;;3.31;65.66
19795;BME280;10057;59.402;17.866;2023-04-08T03:43:50;102874.34;;;3.29;65.51
19795;BME280;10057;59.402;17.866;2023-04-08T03:46:17;102889.22;;;3.28;65.86
19795;BME280;10057;59.402;17.866;2023-04-08T03:48:44;102880.31;;;3.23;65.55
19795;BME280;10057;59.402;17.866;2023-04-08T03:51:10;102883.78;;;3.22;65.74
19795;BME280;10057;59.402;17.866;2023-04-08T03:53:37;102881.06;;;3.19;65.97
19795;BME280;10057;59.402;17.866;2023-04-08T03:56:04;102876.59;;;3.15;65.63
19795;BME280;10057;59.402;17.866;2023-04-08T03:58:31;102891.31;;;3.10;65.28
19795;BME280;10057;59.402;17.866;2023-04-08T04:00:58;102885.88;;;3.04;65.45
19795;BME280;10057;59.402;17.866;2023-04-08T04:03:25;102890.97;;;2.98;65.74
19795;BME280;10057;59.402;17.866;2023-04-08T04:05:52;102892.63;;;2.94;65.73
19795;BME280;10057;59.402;17.866;2023-04-08T04:08:19;102885.56;;;2.92;65.71
19795;BME280;10057;59.402;17.866;2023-04-08T04:10:46;102893.34;;;2.89;65.80
19795;BME280;10057;59.402;17.866;2023-04-08T04:13:13;102897.53;;;2.83;65.93
19795;BME280;10057;59.402;17.866;2023-04-08T04:15:40;102898.31;;;2.79;65.69
19795;BME280;10057;59.402;17.866;2023-04-08T04:18:07;102907.88;;;2.77;65.65
19795;BME280;10057;59.402;17.866;2023-04-08T04:20:34;102907.81;;;2.76;65.65
19795;BME280;10057;59.402;17.866;2023-04-08T04:23:01;102905.06;;;2.71;65.72
19795;BME280;10057;59.402;17.866;2023-04-08T04:25:28;102900.53;;;2.66;65.88
19795;BME280;10057;59.402;17.866;2023-04-08T04:27:55;102904.78;;;2.62;65.93
19795;BME280;10057;59.402;17.866;2023-04-08T04:30:22;102901.25;;;2.60;65.73
19795;BME280;10057;59.402;17.866;2023-04-08T04:32:49;102906.50;;;2.60;65.72
19795;BME280;10057;59.402;17.866;2023-04-08T04:35:16;102905.53;;;2.58;65.72
19795;BME280;10057;59.402;17.866;2023-04-08T04:37:43;102901.97;;;2.56;65.84
19795;BME280;10057;59.402;17.866;2023-04-08T04:40:10;102901.09;;;2.55;65.98
19795;BME280;10057;59.402;17.866;2023-04-08T04:42:36;102895.72;;;2.51;65.77
19795;BME280;10057;59.402;17.866;2023-04-08T04:45:03;102898.28;;;2.49;66.11
19795;BME280;10057;59.402;17.866;2023-04-08T04:47:30;102901.75;;;2.48;65.95
19795;BME280;10057;59.402;17.866;2023-04-08T04:49:58;102900.75;;;2.45;65.78
19795;BME280;10057;59.402;17.866;2023-04-08T04:52:25;102897.19;;;2.43;65.92
19795;BME280;10057;59.402;17.866;2023-04-08T04:54:52;102888.41;;;2.41;66.19
19795;BME280;10057;59.402;17.866;2023-04-08T04:57:18;102906.69;;;2.39;66.19
19795;BME280;10057;59.402;17.866;2023-04-08T04:59:45;102903.16;;;2.37;65.93
19795;BME280;10057;59.402;17.866;2023-04-08T05:02:12;102900.47;;;2.35;65.97
19795;BME280;10057;59.402;17.866;2023-04-08T05:04:39;102910.94;;;2.35;66.28
19795;BME280;10057;59.402;17.866;2023-04-08T05:07:06;102909.16;;;2.33;65.89
19795;BME280;10057;59.402;17.866;2023-04-08T05:09:33;102917.91;;;2.33;66.30
19795;BME280;10057;59.402;17.866;2023-04-08T05:12:00;102918.78;;;2.34;66.03
19795;BME280;10057;59.402;17.866;2023-04-08T05:14:30;102916.16;;;2.34;66.37
19795;BME280;10057;59.402;17.866;2023-04-08T05:16:56;102917.00;;;2.33;66.24
19795;BME280;10057;59.402;17.866;2023-04-08T05:19:23;102921.34;;;2.32;65.95
19795;BME280;10057;59.402;17.866;2023-04-08T05:21:50;102913.44;;;2.31;66.21
19795;BME280;10057;59.402;17.866;2023-04-08T05:24:17;102919.63;;;2.33;66.31
19795;BME280;10057;59.402;17.866;2023-04-08T05:26:43;102917.03;;;2.34;66.18
19795;BME280;10057;59.402;17.866;2023-04-08T05:29:11;102921.44;;;2.35;66.02
19795;BME280;10057;59.402;17.866;2023-04-08T05:31:37;102924.13;;;2.37;66.23
19795;BME280;10057;59.402;17.866;2023-04-08T05:34:04;102926.84;;;2.40;66.72
19795;BME280;10057;59.402;17.866;2023-04-08T05:36:31;102926.88;;;2.42;66.71
19795;BME280;10057;59.402;17.866;2023-04-08T05:38:58;102928.63;;;2.43;66.07
19795;BME280;10057;59.402;17.866;2023-04-08T05:41:27;102937.50;;;2.46;66.42
19795;BME280;10057;59.402;17.866;2023-04-08T05:43:54;102929.66;;;2.46;66.34
19795;BME280;10057;59.402;17.866;2023-04-08T05:46:21;102937.69;;;2.52;66.37
19795;BME280;10057;59.402;17.866;2023-04-08T05:48:47;102932.50;;;2.54;66.45
19795;BME280;10057;59.402;17.866;2023-04-08T05:51:15;102941.38;;;2.59;66.02
19795;BME280;10057;59.402;17.866;2023-04-08T05:53:46;102932.69;;;2.60;66.04
19795;BME280;10057;59.402;17.866;2023-04-08T05:56:13;102930.09;;;2.61;66.20
19795;BME280;10057;59.402;17.866;2023-04-08T05:58:39;102939.72;;;2.61;66.46
19795;BME280;10057;59.402;17.866;2023-04-08T06:01:06;102931.06;;;2.64;66.30
19795;BME280;10057;59.402;17.866;2023-04-08T06:03:33;102927.53;;;2.63;66.12
19795;BME280;10057;59.402;17.866;2023-04-08T06:06:00;102934.56;;;2.64;66.36
19795;BME280;10057;59.402;17.866;2023-04-08T06:08:26;102943.34;;;2.66;66.26
19795;BME280;10057;59.402;17.866;2023-04-08T06:10:53;102938.09;;;2.66;66.41
19795;BME280;10057;59.402;17.866;2023-04-08T06:13:20;102939.91;;;2.67;66.33
19795;BME280;10057;59.402;17.866;2023-04-08T06:15:47;102939.94;;;2.69;66.15
19795;BME280;10057;59.402;17.866;2023-04-08T06:18:16;102954.88;;;2.71;66.55
19795;BME280;10057;59.402;17.866;2023-04-08T06:20:43;102945.25;;;2.70;66.03
19795;BME280;10057;59.402;17.866;2023-04-08T06:23:10;102947.00;;;2.71;66.14
19795;BME280;10057;59.402;17.866;2023-04-08T06:25:37;102951.41;;;2.72;66.11
19795;BME280;10057;59.402;17.866;2023-04-08T06:28:03;102955.75;;;2.72;66.09
19795;BME280;10057;59.402;17.866;2023-04-08T06:30:30;102957.50;;;2.71;66.51
19795;BME280;10057;59.402;17.866;2023-04-08T06:32:57;102947.09;;;2.74;66.44
19795;BME280;10057;59.402;17.866;2023-04-08T06:35:24;102952.47;;;2.79;66.44
19795;BME280;10057;59.402;17.866;2023-04-08T06:37:51;102958.00;;;2.88;66.25
19795;BME280;10057;59.402;17.866;2023-04-08T06:40:17;102957.28;;;2.94;66.31
19795;BME280;10057;59.402;17.866;2023-04-08T06:42:44;102949.59;;;3.00;66.36
19795;BME280;10057;59.402;17.866;2023-04-08T06:45:11;102954.16;;;3.07;66.35
19795;BME280;10057;59.402;17.866;2023-04-08T06:47:37;102956.13;;;3.14;66.08
19795;BME280;10057;59.402;17.866;2023-04-08T06:50:05;102951.13;;;3.23;66.12
19795;BME280;10057;59.402;17.866;2023-04-08T06:52:31;102954.84;;;3.31;66.31
19795;BME280;10057;59.402;17.866;2023-04-08T06:54:59;102952.50;;;3.41;66.11
19795;BME280;10057;59.402;17.866;2023-04-08T06:57:26;102952.84;;;3.53;66.22
19795;BME280;10057;59.402;17.866;2023-04-08T06:59:52;102956.63;;;3.64;66.26
19795;BME280;10057;59.402;17.866;2023-04-08T07:02:19;102957.00;;;3.78;65.91
19795;BME280;10057;59.402;17.866;2023-04-08T07:04:48;102961.69;;;3.90;65.65
19795;BME280;10057;59.402;17.866;2023-04-08T07:07:15;102968.19;;;4.04;65.70
19795;BME280;10057;59.402;17.866;2023-04-08T07:09:41;102965.84;;;4.16;65.74
19795;BME280;10057;59.402;17.866;2023-04-08T07:12:11;102965.28;;;4.30;65.41
19795;BME280;10057;59.402;17.866;2023-04-08T07:14:38;102968.16;;;4.40;65.44
19795;BME280;10057;59.402;17.866;2023-04-08T07:17:05;102964.97;;;4.54;65.39
19795;BME280;10057;59.402;17.866;2023-04-08T07:19:32;102962.59;;;4.64;64.94
19795;BME280;10057;59.402;17.866;2023-04-08T07:21:59;102974.28;;;4.77;64.96
19795;BME280;10057;59.402;17.866;2023-04-08T07:24:26;102966.59;;;4.86;65.06
19795;BME280;10057;59.402;17.866;2023-04-08T07:26:53;102963.25;;;4.95;64.50
19795;BME280;10057;59.402;17.866;2023-04-08T07:29:22;102973.09;;;5.04;64.50
19795;BME280;10057;59.402;17.866;2023-04-08T07:31:48;102983.00;;;5.15;64.18
19795;BME280;10057;59.402;17.866;2023-04-08T07:34:15;102971.72;;;5.21;64.33
19795;BME280;10057;59.402;17.866;2023-04-08T07:36:42;102973.66;;;5.31;64.31
19795;BME280;10057;59.402;17.866;2023-04-08T07:39:09;102975.59;;;5.40;63.68
19795;BME280;10057;59.402;17.866;2023-04-08T07:41:36;102972.25;;;5.49;63.88
19795;BME280;10057;59.402;17.866;2023-04-08T07:44:02;102968.94;;;5.57;63.50
19795;BME280;10057;59.402;17.866;2023-04-08T07:46:29;102971.72;;;5.66;63.46
19795;BME280;10057;59.402;17.866;2023-04-08T07:48:57;102966.63;;;5.76;63.50
19795;BME280;10057;59.402;17.866;2023-04-08T07:51:23;102967.63;;;5.84;63.49
19795;BME280;10057;59.402;17.866;2023-04-08T07:53:50;102968.72;;;5.93;63.56
19795;BME280;10057;59.402;17.866;2023-04-08T07:56:17;102967.13;;;6.02;63.12
19795;BME280;10057;59.402;17.866;2023-04-08T07:58:45;102967.25;;;6.11;62.83
19795;BME280;10057;59.402;17.866;2023-04-08T08:01:19;102968.31;;;6.22;62.74
19795;BME280;10057;59.402;17.866;2023-04-08T08:03:50;102979.00;;;6.31;62.66
19795;BME280;10057;59.402;17.866;2023-04-08T08:06:19;102972.19;;;6.44;62.60
19795;BME280;10057;59.402;17.866;2023-04-08T08:08:46;102975.03;;;6.59;62.86
19795;BME280;10057;59.402;17.866;2023-04-08T08:11:13;102978.81;;;6.77;62.79
19795;BME280;10057;59.402;17.866;2023-04-08T08:13:39;102980.94;;;7.02;63.29
19795;BME280;10057;59.402;17.866;2023-04-08T08:16:06;102976.09;;;7.39;63.58
19795;BME280;10057;59.402;17.866;2023-04-08T08:18:37;102965.16;;;7.88;63.81
19795;BME280;10057;59.402;17.866;2023-04-08T08:21:06;102970.91;;;8.38;65.10
19795;BME280;10057;59.402;17.866;2023-04-08T08:23:33;102969.44;;;8.86;65.19
19795;BME280;10057;59.402;17.866;2023-04-08T08:26:11;102967.88;;;9.34;64.80
19795;BME280;10057;59.402;17.866;2023-04-08T08:28:39;102968.84;;;9.79;65.91
19795;BME280;10057;59.402;17.866;2023-04-08T08:31:06;102967.09;;;10.23;65.69
19795;BME280;10057;59.402;17.866;2023-04-08T08:33:33;102962.66;;;10.61;65.19
19795;BME280;10057;59.402;17.866;2023-04-08T08:36:00;102972.31;;;10.98;64.04
19795;BME280;10057;59.402;17.866;2023-04-08T08:38:27;102972.16;;;11.28;63.58
19795;BME280;10057;59.402;17.866;2023-04-08T08:40:54;102964.91;;;11.55;63.17
19795;BME280;10057;59.402;17.866;2023-04-08T08:43:22;102969.13;;;11.90;62.45
19795;BME280;10057;59.402;17.866;2023-04-08T08:45:49;102966.34;;;12.11;61.32
19795;BME280;10057;59.402;17.866;2023-04-08T08:48:16;102966.88;;;12.47;60.77
19795;BME280;10057;59.402;17.866;2023-04-08T08:50:43;102968.41;;;12.72;59.51
19795;BME280;10057;59.402;17.866;2023-04-08T08:53:11;102952.03;;;13.06;59.14
19795;BME280;10057;59.402;17.866;2023-04-08T08:55:38;102961.41;;;13.38;58.31
19795;BME280;10057;59.402;17.866;2023-04-08T08:58:28;102955.69;;;13.64;57.01
19795;BME280;10057;59.402;17.866;2023-04-08T09:00:55;102959.94;;;13.77;55.73
19795;BME280;10057;59.402;17.866;2023-04-08T09:03:30;102959.56;;;14.00;54.85
19795;BME280;10057;59.402;17.866;2023-04-08T09:06:00;102959.97;;;14.30;53.97
19795;BME280;10057;59.402;17.866;2023-04-08T09:08:30;102954.44;;;14.40;53.03
19795;BME280;10057;59.402;17.866;2023-04-08T09:11:12;102954.53;;;14.36;52.34
19795;BME280;10057;59.402;17.866;2023-04-08T09:13:39;102946.53;;;14.34;51.88
19795;BME280;10057;59.402;17.866;2023-04-08T09:16:08;102951.94;;;14.30;50.78
19795;BME280;10057;59.402;17.866;2023-04-08T09:18:39;102933.47;;;14.19;50.08
19795;BME280;10057;59.402;17.866;2023-04-08T09:21:06;102944.72;;;14.35;50.07
19795;BME280;10057;59.402;17.866;2023-04-08T09:23:47;102946.16;;;14.56;49.04
19795;BME280;10057;59.402;17.866;2023-04-08T09:26:20;102933.34;;;14.73;48.48
19795;BME280;10057;59.402;17.866;2023-04-08T09:29:05;102936.47;;;14.95;47.77
19795;BME280;10057;59.402;17.866;2023-04-08T09:31:54;102937.75;;;15.17;46.71
19795;BME280;10057;59.402;17.866;2023-04-08T09:34:22;102935.09;;;15.17;45.84
19795;BME280;10057;59.402;17.866;2023-04-08T09:36:50;102933.19;;;15.23;45.63
19795;BME280;10057;59.402;17.866;2023-04-08T09:39:17;102938.13;;;15.01;44.62
19795;BME280;10057;59.402;17.866;2023-04-08T09:41:47;102937.81;;;14.73;44.63
19795;BME280;10057;59.402;17.866;2023-04-08T09:44:14;102941.81;;;14.50;44.68
19795;BME280;10057;59.402;17.866;2023-04-08T09:52:07;102933.72;;;13.46;44.64
19795;BME280;10057;59.402;17.866;2023-04-08T09:55:00;102938.50;;;13.21;45.18
19795;BME280;10057;59.402;17.866;2023-04-08T09:57:36;102943.34;;;12.90;44.78
19795;BME280;10057;59.402;17.866;2023-04-08T10:00:14;102941.03;;;12.56;nan
19795;BME280;10057;59.402;17.866;2023-04-08T10:05:17;102948.59;;;12.08;45.29
19795;BME280;10057;59.402;17.866;2023-04-08T10:07:44;102933.66;;;11.97;45.28
19795;BME280;10057;59.402;17.866;2023-04-08T10:10:11;102942.56;;;11.82;45.15
19795;BME280;10057;59.402;17.866;2023-04-08T10:12:38;102936.38;;;11.81;45.36
19795;BME280;10057;59.402;17.866;2023-04-08T10:17:55;102935.59;;;11.70;44.98
19795;BME280;10057;59.402;17.866;2023-04-08T10:20:45;102929.34;;;11.74;45.02
19795;BME280;10057;59.402;17.866;2023-04-08T10:23:14;102929.31;;;11.77;45.07
19795;BME280;10057;59.402;17.866;2023-04-08T10:25:44;102928.38;;;11.86;45.28
19795;BME280;10057;59.402;17.866;2023-04-08T10:33:16;102919.25;;;12.18;45.06
19795;BME280;10057;59.402;17.866;2023-04-08T10:35:48;102916.56;;;12.22;44.69
19795;BME280;10057;59.402;17.866;2023-04-08T10:38:16;102918.28;;;12.28;44.35
19795;BME280;10057;59.402;17.866;2023-04-08T10:40:43;102921.75;;;12.35;44.58
19795;BME280;10057;59.402;17.866;2023-04-08T10:43:11;102922.56;;;12.43;44.57
19795;BME280;10057;59.402;17.866;2023-04-08T10:45:39;102915.38;;;12.49;44.22
19795;BME280;10057;59.402;17.866;2023-04-08T10:48:19;102915.25;;;12.62;44.18
19795;BME280;10057;59.402;17.866;2023-04-08T10:50:52;102913.31;;;12.74;44.19
19795;BME280;10057;59.402;17.866;2023-04-08T10:53:28;102908.88;;;12.76;43.54
19795;BME280;10057;59.402;17.866;2023-04-08T10:56:13;102906.13;;;12.83;43.26
19795;BME280;10057;59.402;17.866;2023-04-08T10:58:49;102904.38;;;12.80;43.50
19795;BME280;10057;59.402;17.866;2023-04-08T11:01:17;102901.69;;;12.83;43.28
19795;BME280;10057;59.402;17.866;2023-04-08T11:03:44;102895.34;;;12.92;43.04
19795;BME280;10057;59.402;17.866;2023-04-08T11:06:11;102908.53;;;13.04;42.48
19795;BME280;10057;59.402;17.866;2023-04-08T11:08:38;102905.75;;;13.13;42.64
19795;BME280;10057;59.402;17.866;2023-04-08T11:11:05;102896.72;;;13.23;42.12
19795;BME280;10057;59.402;17.866;2023-04-08T11:13:41;102893.03;;;13.34;41.99
19795;BME280;10057;59.402;17.866;2023-04-08T11:16:20;102893.84;;;13.39;42.00
19795;BME280;10057;59.402;17.866;2023-04-08T11:18:50;102899.00;;;13.51;42.06
19795;BME280;10057;59.402;17.866;2023-04-08T11:21:18;102901.53;;;13.59;41.66
19795;BME280;10057;59.402;17.866;2023-04-08T11:23:48;102902.47;;;13.56;41.05
19795;BME280;10057;59.402;17.866;2023-04-08T11:26:16;102904.22;;;13.57;40.73
19795;BME280;10057;59.402;17.866;2023-04-08T11:28:43;102906.97;;;13.52;40.77
19795;BME280;10057;59.402;17.866;2023-04-08T11:31:11;102901.66;;;13.51;40.73
19795;BME280;10057;59.402;17.866;2023-04-08T11:33:47;102893.75;;;13.45;40.38
19795;BME280;10057;59.402;17.866;2023-04-08T11:36:16;102897.38;;;13.41;40.41
19795;BME280;10057;59.402;17.866;2023-04-08T11:38:43;102896.34;;;13.49;40.64
19795;BME280;10057;59.402;17.866;2023-04-08T11:41:10;102894.47;;;13.56;40.27
19795;BME280;10057;59.402;17.866;2023-04-08T11:43:37;102897.88;;;13.66;40.39
19795;BME280;10057;59.402;17.866;2023-04-08T11:46:09;102894.19;;;13.73;40.47
19795;BME280;10057;59.402;17.866;2023-04-08T11:48:39;102888.84;;;13.74;40.46
19795;BME280;10057;59.402;17.866;2023-04-08T11:51:07;102893.19;;;13.80;40.08
19795;BME280;10057;59.402;17.866;2023-04-08T11:53:38;102894.09;;;13.79;39.91
19795;BME280;10057;59.402;17.866;2023-04-08T11:56:18;102887.06;;;13.75;40.21
19795;BME280;10057;59.402;17.866;2023-04-08T11:58:47;102895.03;;;13.77;40.05
19795;BME280;10057;59.402;17.866;2023-04-08T12:01:13;102885.22;;;13.79;40.22
19795;BME280;10057;59.402;17.866;2023-04-08T12:06:22;102884.16;;;13.87;40.03
19795;BME280;10057;59.402;17.866;2023-04-08T12:08:49;102874.25;;;13.95;40.02
19795;BME280;10057;59.402;17.866;2023-04-08T12:11:16;102874.91;;;14.08;39.83
19795;BME280;10057;59.402;17.866;2023-04-08T12:13:45;102869.28;;;14.23;39.49
19795;BME280;10057;59.402;17.866;2023-04-08T12:16:12;102875.22;;;14.39;38.98
19795;BME280;10057;59.402;17.866;2023-04-08T12:18:39;102867.13;;;14.44;38.73
19795;BME280;10057;59.402;17.866;2023-04-08T12:21:06;102863.56;;;14.43;38.66
19795;BME280;10057;59.402;17.866;2023-04-08T12:23:33;102864.34;;;14.49;38.57
19795;BME280;10057;59.402;17.866;2023-04-08T12:25:59;102858.97;;;14.52;38.59
19795;BME280;10057;59.402;17.866;2023-04-08T12:28:26;102866.06;;;14.53;38.48
19795;BME280;10057;59.402;17.866;2023-04-08T12:30:53;102862.56;;;14.49;38.23
19795;BME280;10057;59.402;17.866;2023-04-08T12:33:19;102853.66;;;14.49;38.46
19795;BME280;10057;59.402;17.866;2023-04-08T12:35:46;102852.75;;;14.51;38.16
19795;BME280;10057;59.402;17.866;2023-04-08T12:38:13;102859.72;;;14.58;38.36
19795;BME280;10057;59.402;17.866;2023-04-08T12:40:40;102855.09;;;14.68;38.15
19795;BME280;10057;59.402;17.866;2023-04-08T12:43:06;102856.84;;;14.69;37.74
19795;BME280;10057;59.402;17.866;2023-04-08T12:45:33;102846.28;;;14.63;37.60
19795;BME280;10057;59.402;17.866;2023-04-08T12:48:00;102848.13;;;14.59;37.75
19795;BME280;10057;59.402;17.866;2023-04-08T12:50:26;102839.22;;;14.60;37.77
19795;BME280;10057;59.402;17.866;2023-04-08T12:52:53;102842.72;;;14.64;37.34
19795;BME280;10057;59.402;17.866;2023-04-08T12:55:20;102843.53;;;14.67;37.30
19795;BME280;10057;59.402;17.866;2023-04-08T12:57:51;102840.00;;;14.65;36.87
19795;BME280;10057;59.402;17.866;2023-04-08T13:00:18;102841.75;;;14.66;36.78
19795;BME280;10057;59.402;17.866;2023-04-08T13:02:45;102839.00;;;14.69;36.75
19795;BME280;10057;59.402;17.866;2023-04-08T13:05:12;102836.16;;;14.79;36.51
19795;BME280;10057;59.402;17.866;2023-04-08T13:07:39;102837.84;;;14.83;36.75
19795;BME280;10057;59.402;17.866;2023-04-08T13:10:07;102834.03;;;14.93;36.71
19795;BME280;10057;59.402;17.866;2023-04-08T13:12:34;102836.53;;;15.02;36.44
19795;BME280;10057;59.402;17.866;2023-04-08T13:15:00;102838.19;;;15.08;36.38
19795;BME280;10057;59.402;17.866;2023-04-08T13:17:27;102832.66;;;15.15;36.27